Nearby METAR Reports

 

KSJC - San Jose, California, USA
Distance from station: NE 9mi, 14km
Updated: Sun, 05/19/19 7:53pm
Light rain, Overcast
Light rain, Overcast
 Wind from W
Wind: W 6 mph , 9 km/h
Temperature: 55°F , 13°C
Dew Point: 48°F , 9°C
Humidity: 77%
Barometer: 29.84 inHg , 1010.5 hPa
Summary: Light rain
Clouds: Overcast
Visibility: 9 miles , 14 km
Cloud details: Few Clouds 100 ft
Mostly cloudy 3200 ft
Overcast 8000 ft
2019/05/20 01:53 KSJC 200153Z 28005KT 9SM -RA FEW001 BKN032 OVC080 13/09 A2984 RMK AO2 SLP103 P0001 T01280094 $
KNUQ - Moffett Nas/Mtn, California, USA
Distance from station: N 9mi, 14km
Updated: Sun, 05/19/19 7:56pm
Overcast
Overcast
 Wind from W
Wind: W 5 mph , 7 km/h
Temperature: 55°F , 13°C
Dew Point: 48°F , 9°C
Humidity: 77%
Barometer: 29.84 inHg , 1010.5 hPa
Clouds: Overcast
Visibility: 10 miles , 16 km
Cloud details: Mostly cloudy 5000 ft
Overcast 6000 ft
2019/05/20 01:56 KNUQ 200156Z 26004KT 10SM BKN050 OVC060 13/09 A2984 RMK AO2 SLP107 T01330094 $
 
KPAO - Palo Alto, California, USA
Distance from station: NNW 14mi, 23km
Updated: Sun, 05/19/19 7:47pm
Nearby showers, Mostly cloudy
Nearby showers, Mostly cloudy
 Wind from WSW
Wind: WSW 6 mph , 9 km/h
Temperature: 55°F , 13°C
Dew Point: 48°F , 9°C
Humidity: 77%
Barometer: 29.84 inHg , 1010.5 hPa
Summary: Nearby Showers
Clouds: Mostly cloudy
Visibility: 10 miles , 16 km
Cloud details: Mostly cloudy 3000 ft
Mostly cloudy 5000 ft
2019/05/20 01:47 KPAO 200147Z 25005KT 10SM VCSH BKN030 BKN050 13/09 A2984
KRHV - San Jose/Reid, California, USA
Distance from station: ENE 12mi, 19km
Updated: Sun, 05/19/19 7:55pm
Overcast
Overcast
 Wind from varies
Wind: varies 5 mph , 7 km/h
Temperature: 54°F , 12°C
Dew Point: 50°F , 10°C
Humidity: 88%
Barometer: 29.85 inHg , 1010.8 hPa
Clouds: Overcast
Visibility: 8 miles , 13 km
Cloud details: Mostly cloudy 3000 ft
Overcast 8000 ft
2019/05/20 01:55 KRHV 200155Z VRB04KT 8SM BKN030 OVC080 12/10 A2985
 
KOAK - Oakland, California, USA
Distance from station: NNW 31mi, 50km
Updated: Sun, 05/19/19 7:53pm
Mostly cloudy
Mostly cloudy
 Wind from WSW
Wind: WSW 8 mph , 13 km/h
Temperature: 57°F , 14°C
Dew Point: 46°F , 8°C
Humidity: 67%
Barometer: 29.84 inHg , 1010.5 hPa
Clouds: Mostly cloudy
Visibility: 10 miles , 16 km
Cloud details: Partly cloudy 2000 ft
Mostly cloudy 3500 ft
Mostly cloudy 10000 ft
Mostly cloudy 14000 ft
2019/05/20 01:53 KOAK 200153Z 24007KT 10SM SCT020 BKN035 BKN100 BKN140 14/08 A2984 RMK AO2 SLP103 TCU DSNT NE T01440078
KSQL - San Carlos Airpo, California, USA
Distance from station: NW 21mi, 34km
Updated: Sun, 05/19/19 7:50pm
Mostly cloudy
Mostly cloudy
 Wind from WSW
Wind: WSW 8 mph , 13 km/h
Temperature: 57°F , 14°C
Dew Point: 48°F , 9°C
Humidity: 72%
Barometer: 29.84 inHg , 1010.5 hPa
Clouds: Mostly cloudy
Visibility: 10 miles , 16 km
Cloud details: Partly cloudy 2200 ft
Mostly cloudy 6000 ft
Mostly cloudy 7000 ft
2019/05/20 01:50 KSQL 200150Z 24007KT 10SM SCT022 BKN060 BKN070 14/09 A2984
 
KSFO - San Francisco, California, USA
Distance from station: NW 30mi, 49km
Updated: Sun, 05/19/19 7:56pm
Mostly cloudy
Mostly cloudy
 Wind from WSW
Wind: WSW 8 mph , 13 km/h
Temperature: 55°F , 13°C
Dew Point: 45°F , 7°C
Humidity: 67%
Barometer: 29.83 inHg , 1010.2 hPa
Clouds: Mostly cloudy
Visibility: 10 miles , 16 km
Cloud details: Few Clouds 1800 ft
Partly cloudy 6000 ft
Mostly cloudy 7500 ft
2019/05/20 01:56 KSFO 200156Z 25007KT 10SM FEW018 SCT060 BKN075 13/07 A2983 RMK AO2 SLP099 T01330072
KE16 - San Martin, California, USA
Distance from station: ESE 27mi, 43km
Updated: Sun, 05/19/19 11:45am
NOT Current
Partly cloudy
Partly cloudy
 Wind from SE
Wind: SE 10 mph , 17 km/h
Temperature: 54°F , 12°C
Dew Point: 50°F , 10°C
Humidity: 88%
Barometer: 29.83 inHg , 1010.2 hPa
Clouds: Partly cloudy
Visibility: 10 miles , 16 km
Cloud details: Few Clouds 4800 ft
Partly cloudy 5500 ft
2019/05/19 17:45 KE16 191745Z AUTO 13009KT 10SM FEW048 SCT055 12/10 A2983 RMK AO2
 
KWVI - Watsonville, California, USA
Distance from station: SSE 27mi, 44km
Updated: Sun, 05/19/19 7:53pm
Light rain, Overcast
Light rain, Overcast
 Wind from WNW
Wind: WNW 8 mph , 13 km/h
Temperature: 55°F , 13°C
Dew Point: 50°F , 10°C
Humidity: 82%
Barometer: 29.85 inHg , 1010.8 hPa
Summary: Light rain
Clouds: Overcast
Visibility: 10 miles , 16 km
Cloud details: Partly cloudy 2400 ft
Mostly cloudy 6000 ft
Overcast 8000 ft
2019/05/20 01:53 KWVI 200153Z AUTO 29007KT 10SM -RA SCT024 BKN060 OVC080 13/10 A2985 RMK AO2 RAB50 SLP106 P0000 T01330100
KHAF - Half Moon Bay, California, USA
Distance from station: WNW 31mi, 50km
Updated: Sun, 05/19/19 8:20pm
Overcast
Overcast
 Wind from calm
Wind: Calm
Temperature: 54°F , 12°C
Dew Point: 48°F , 9°C
Humidity: 82%
Barometer: 29.85 inHg , 1010.8 hPa
Clouds: Overcast
Visibility: 7 miles , 11 km
Cloud details: Few Clouds 1400 ft
Mostly cloudy 2400 ft
Overcast 3800 ft
2019/05/20 02:20 KHAF 200220Z AUTO 00000KT 7SM FEW014 BKN024 OVC038 12/09 A2985 RMK AO2
 
KHWD - Hayward, California, USA
Distance from station: N 28mi, 44km
Updated: Sun, 05/19/19 7:54pm
Mostly cloudy
Mostly cloudy
 Wind from W
Wind: W 8 mph , 13 km/h
Temperature: 57°F , 14°C
Dew Point: 46°F , 8°C
Humidity: 67%
Barometer: 29.83 inHg , 1010.2 hPa
Clouds: Mostly cloudy
Visibility: 10 miles , 16 km
Cloud details: Few Clouds 5000 ft
Partly cloudy 7000 ft
Mostly cloudy 9000 ft
2019/05/20 01:54 KHWD 200154Z 27007KT 10SM FEW050 SCT070 BKN090 14/08 A2983 RMK AO2 SLP111 T01390078
KLVK - Livermore, California, USA
Distance from station: NNE 31mi, 51km
Updated: Sun, 05/19/19 7:53pm
Overcast
Overcast
 Wind from WSW
Wind: WSW 8 mph , 13 km/h
Temperature: 55°F , 13°C
Dew Point: 46°F , 8°C
Humidity: 72%
Barometer: 29.82 inHg , 1009.8 hPa
Clouds: Overcast
Visibility: 10 miles , 16 km
Cloud details: Partly cloudy 2600 ft
Mostly cloudy 5000 ft
Overcast 7000 ft
2019/05/20 01:53 KLVK 200153Z 24007KT 10SM SCT026 BKN050 OVC070 13/08 A2982 RMK AO2 RAE0059 SLP097 P0000 T01280078